Murphy, ID (83650)

1:46 PM MST on January 26, 2015 (GMT -0700)
MesoWest NAMPA ID US AGRIMET | Change Station
CLOSE
Current Station
Personal Weather Station
Location: Melba, ID
Elevation: 2634 ft
Nearby Weather Stations

Elev 2634 ft 43.44 °N, 116.64 °W | Updated 46 minutes ago

Partly Cloudy
Partly Cloudy
43 °F
Feels Like 37 °F
N
11
Wind Variable Wind from ESE
Gusts 15.0 mph

Today
High -- | Low -- °F
--% Chance of Precip.
Yesterday
High -- | Low -- °F
Precip. -- in
8:07 AM 5:50 PM
Waxing Crescent, 46% visible
Pressure 30.26 in
Visibility 10.0 miles
Clouds Overcast 1800 ft
Windchill 37 °F
Dew Point 42 °F
Humidity 95%
Rainfall 0.00 in
Snow Depth Not available.
UV 1 out of 12
Pollen 1.30 out of 12
Air Quality Not available.
Flu Activity Not available.
METAR KMAN 262035Z AUTO 02005KT 10SM OVC018 04/04 A3026 RMK AO1

More Conditions Fewer Conditions

Pressure 30.26 in
Visibility 10.0 miles
Clouds Overcast 1800 ft
Windchill 37 °F
Dew Point 42 °F
Humidity 95%
Rainfall 0.00 in
Snow Depth Not available.
UV 1 out of 12
Pollen 1.30 out of 12
Air Quality Not available.
Flu Activity Not available.
METAR KMAN 262035Z AUTO 02005KT 10SM OVC018 04/04 A3026 RMK AO1

More Conditions Fewer Conditions

10-Day Weather Forecast

Almanac

Astronomy

Jan. 26, 2015 Rise Set
Actual Time
Civil Twilight
Nautical Twilight
Astronomical Twilight
Moon
Length of Visible Light
Length of Day
Tomorrow will be .
, % of the Moon is Illuminated

Today's Extremes

State Highs State Lows

Community

WunderPhotos

Upload Photos

1,790,351 photos uploaded!

WunderBlogs® & News

Nearby

Air Quality

  Air Quality AQ Index Pollutant
Not available.

Snow Depth

Station Depth Elevation

Earthquake Activity

City Distance Mag. Time & Date
Minimum magnitude displayed is 2.5.

Coastal Water Temperatures

Place Temperature

Nearby Weather Stations